Netherland Tide — YJVY9 — position and weather

sailwx.info

Track history (hours):
 
Tides and Currents Weather Stations Pressure Air Temp Water Temp Dewpoint Dewpoint Depression Visibility Wind Speed Wind Dir Waves Ship Positions

Netherland Tide

Last reported at 2018-Feb-20 11:08 UTC. Time now 2018-Feb-22 20:07 UTC.
Position S 05°18' E 012°02'.

Length 70 m; draft 5 m.

Type: Tug. MMSI: 576212000.

Date/timePositionNaut miles runAvg speedWind from/ knotsBaromVisibWave heightAir tempDewpointWater temp
2018-Feb-20 11:08S 05°18' E 012°02'0 0.0
2018-Feb-20 10:58S 05°18' E 012°02'26 0.6
2018-Feb-18 15:00S 05°33' E 011°41'713.0
2018-Feb-18 14:25S 05°26' E 011°39'410.2
2018-Feb-18 14:00S 05°22' E 011°40'0 0.3
2018-Feb-18 13:30S 05°22' E 011°40'0 0.0
2018-Feb-18 12:59S 05°22' E 011°40'0 0.1
2018-Feb-18 12:30S 05°22' E 011°40'0 0.2
2018-Feb-18 11:59S 05°22' E 011°40'0 0.6
2018-Feb-18 11:30S 05°22' E 011°39'1 1.7
2018-Feb-18 11:00S 05°21' E 011°39'1 1.0
2018-Feb-18 10:31S 05°21' E 011°39'1 1.1
2018-Feb-18 10:00S 05°22' E 011°40'612.6
2018-Feb-18 09:30S 05°18' E 011°45'6 5.4
2018-Feb-18 08:21S 05°15' E 011°50'611.6
2018-Feb-18 07:48S 05°16' E 011°56'20 0.9
2018-Feb-17 10:40S 05°30' E 011°43'313.4
2018-Feb-17 10:27S 05°29' E 011°40'613.8
2018-Feb-17 09:59S 05°26' E 011°34'510.1
2018-Feb-17 09:30S 05°29' E 011°31'0 0.1
2018-Feb-17 08:44S 05°29' E 011°31'0 0.0
2018-Feb-17 08:28S 05°29' E 011°31'0 0.0
2018-Feb-17 08:00S 05°29' E 011°31'0 0.0
2018-Feb-17 07:29S 05°29' E 011°31'0 0.0
2018-Feb-17 06:59S 05°29' E 011°31'0 0.2
2018-Feb-17 06:29S 05°29' E 011°31'0 0.2
2018-Feb-17 06:00S 05°29' E 011°31'0 0.0
2018-Feb-17 05:30S 05°29' E 011°31'0 0.7
2018-Feb-17 05:00S 05°29' E 011°31'4 7.5
2018-Feb-17 04:30S 05°28' E 011°35'4 6.9
2018-Feb-17 03:59S 05°27' E 011°38'4 9.3
2018-Feb-17 03:30S 05°26' E 011°42'611.6
2018-Feb-17 03:00S 05°24' E 011°48'16 1.9
2018-Feb-16 18:16S 05°34' E 011°35'413.1
2018-Feb-16 17:58S 05°36' E 011°32'612.8
2018-Feb-16 17:30S 05°39' E 011°26'1 1.0
2018-Feb-16 17:00S 05°39' E 011°27'0 0.0
2018-Feb-16 16:25S 05°39' E 011°27'0 0.2
2018-Feb-16 16:00S 05°39' E 011°27'0 0.3
2018-Feb-16 15:30S 05°39' E 011°27'3 6.0
2018-Feb-16 14:58S 05°41' E 011°29'1 0.5
2018-Feb-16 11:54S 05°41' E 011°30'813.9
2018-Feb-16 11:21S 05°35' E 011°35'513.9
2018-Feb-16 10:59S 05°32' E 011°39'714.0
2018-Feb-16 10:30S 05°28' E 011°45'14 0.6
2018-Feb-15 12:16S 05°15' E 011°50'0 0.0
2018-Feb-15 10:59S 05°15' E 011°50'4 0.2
2018-Feb-14 15:42S 05°18' E 011°53'212.2
2018-Feb-14 15:30S 05°16' E 011°51'1 1.6
2018-Feb-14 15:00S 05°15' E 011°51'0 0.0
2018-Feb-14 14:12S 05°15' E 011°51'0 0.1
2018-Feb-14 13:59S 05°15' E 011°51'0 0.0
2018-Feb-14 13:30S 05°15' E 011°51'  
2018-Feb-11 15:37S 05°13' E 011°50'0 0.3
2018-Feb-11 15:28S 05°13' E 011°50'0 0.5
2018-Feb-11 14:51S 05°13' E 011°50'3 0.3
2018-Feb-11 05:33S 05°16' E 011°51'  
Track history (hours):
 
Tides and Currents Weather Stations Pressure Air Temp Water Temp Dewpoint Dewpoint Depression Visibility Wind Speed Wind Dir Waves Ship Positions

Netherland Tide

Last reported at 2018-Feb-20 11:08 UTC. Time now 2018-Feb-22 20:07 UTC.
Position S 05°18' E 012°02'.

Length 70 m; draft 5 m.

Type: Tug. MMSI: 576212000.

Date/timePositionNaut miles runAvg speedWind from/ knotsBaromVisibWave heightAir tempDewpointWater temp
2018-Feb-20 11:08S 05°18' E 012°02'0 0.0
2018-Feb-20 10:58S 05°18' E 012°02'26 0.6
2018-Feb-18 15:00S 05°33' E 011°41'713.0
2018-Feb-18 14:25S 05°26' E 011°39'410.2
2018-Feb-18 14:00S 05°22' E 011°40'0 0.3
2018-Feb-18 13:30S 05°22' E 011°40'0 0.0
2018-Feb-18 12:59S 05°22' E 011°40'0 0.1
2018-Feb-18 12:30S 05°22' E 011°40'0 0.2
2018-Feb-18 11:59S 05°22' E 011°40'0 0.6
2018-Feb-18 11:30S 05°22' E 011°39'1 1.7
2018-Feb-18 11:00S 05°21' E 011°39'1 1.0
2018-Feb-18 10:31S 05°21' E 011°39'1 1.1
2018-Feb-18 10:00S 05°22' E 011°40'612.6
2018-Feb-18 09:30S 05°18' E 011°45'6 5.4
2018-Feb-18 08:21S 05°15' E 011°50'611.6
2018-Feb-18 07:48S 05°16' E 011°56'20 0.9
2018-Feb-17 10:40S 05°30' E 011°43'313.4
2018-Feb-17 10:27S 05°29' E 011°40'613.8
2018-Feb-17 09:59S 05°26' E 011°34'510.1
2018-Feb-17 09:30S 05°29' E 011°31'0 0.1
2018-Feb-17 08:44S 05°29' E 011°31'0 0.0
2018-Feb-17 08:28S 05°29' E 011°31'0 0.0
2018-Feb-17 08:00S 05°29' E 011°31'0 0.0
2018-Feb-17 07:29S 05°29' E 011°31'0 0.0
2018-Feb-17 06:59S 05°29' E 011°31'0 0.2
2018-Feb-17 06:29S 05°29' E 011°31'0 0.2
2018-Feb-17 06:00S 05°29' E 011°31'0 0.0
2018-Feb-17 05:30S 05°29' E 011°31'0 0.7
2018-Feb-17 05:00S 05°29' E 011°31'4 7.5
2018-Feb-17 04:30S 05°28' E 011°35'4 6.9
2018-Feb-17 03:59S 05°27' E 011°38'4 9.3
2018-Feb-17 03:30S 05°26' E 011°42'611.6
2018-Feb-17 03:00S 05°24' E 011°48'16 1.9
2018-Feb-16 18:16S 05°34' E 011°35'413.1
2018-Feb-16 17:58S 05°36' E 011°32'612.8
2018-Feb-16 17:30S 05°39' E 011°26'1 1.0
2018-Feb-16 17:00S 05°39' E 011°27'0 0.0
2018-Feb-16 16:25S 05°39' E 011°27'0 0.2
2018-Feb-16 16:00S 05°39' E 011°27'0 0.3
2018-Feb-16 15:30S 05°39' E 011°27'3 6.0
2018-Feb-16 14:58S 05°41' E 011°29'1 0.5
2018-Feb-16 11:54S 05°41' E 011°30'813.9
2018-Feb-16 11:21S 05°35' E 011°35'513.9
2018-Feb-16 10:59S 05°32' E 011°39'714.0
2018-Feb-16 10:30S 05°28' E 011°45'14 0.6
2018-Feb-15 12:16S 05°15' E 011°50'0 0.0
2018-Feb-15 10:59S 05°15' E 011°50'4 0.2
2018-Feb-14 15:42S 05°18' E 011°53'212.2
2018-Feb-14 15:30S 05°16' E 011°51'1 1.6
2018-Feb-14 15:00S 05°15' E 011°51'0 0.0
2018-Feb-14 14:12S 05°15' E 011°51'0 0.1
2018-Feb-14 13:59S 05°15' E 011°51'0 0.0
2018-Feb-14 13:30S 05°15' E 011°51'  
2018-Feb-11 15:37S 05°13' E 011°50'0 0.3
2018-Feb-11 15:28S 05°13' E 011°50'0 0.5
2018-Feb-11 14:51S 05°13' E 011°50'3 0.3
2018-Feb-11 05:33S 05°16' E 011°51'  

Dump ship's entire track history